Time;durP1;ratioP1;P1;durP2;ratioP2;P2;SDS_P1;SDS_P2;PMS_P1;PMS_P2;Temp;Humidity;BMP_temperature;BMP_pressure;BME280_temperature;BME280_humidity;BME280_pressure;Samples;Min_cycle;Max_cycle;Signal;HPM_P1;HPM_P2
2023/05/04 00:01:55;;;;;;;5.57;2.30;;;;;;;;;;5113119;28;20387;-66
2023/05/04 00:04:25;;;;;;;3.95;1.48;;;;;;;;;;5113565;28;20046;-65
2023/05/04 00:06:57;;;;;;;3.30;1.65;;;;;;;;;;5111356;28;20046;-65
2023/05/04 00:09:27;;;;;;;4.07;1.70;;;;;;;;;;5113484;28;20040;-65
2023/05/04 00:11:57;;;;;;;6.85;2.75;;;;;;;;;;5041226;28;20407;-65
2023/05/04 00:14:27;;;;;;;4.18;1.70;;;;;;;;;;5042522;28;20522;-65
2023/05/04 00:16:57;;;;;;;4.80;2.10;;;;;;;;;;5093323;28;20075;-65
2023/05/04 00:19:27;;;;;;;6.15;2.40;;;;;;;;;;5093485;28;20044;-65
2023/05/04 00:21:57;;;;;;;15.10;5.65;;;;;;;;;;5093182;28;20040;-65
2023/05/04 00:24:28;;;;;;;19.52;8.40;;;;;;;;;;5109363;28;20051;-65
2023/05/04 00:27:01;;;;;;;;;;;;;;;;;;5095045;28;20047;-65
2023/05/04 00:29:31;;;;;;;32.22;19.15;;;;;;;;;;5060403;28;20283;-65
2023/05/04 00:32:01;;;;;;;39.67;19.38;;;;;;;;;;5090343;28;20114;-65
2023/05/04 00:34:35;;;;;;;38.55;20.92;;;;;;;;;;5067608;28;20077;-65
2023/05/04 00:37:05;;;;;;;34.17;18.15;;;;;;;;;;5016823;28;20556;-65
2023/05/04 00:39:35;;;;;;;29.45;15.85;;;;;;;;;;5050243;28;20060;-65
2023/05/04 00:42:07;;;;;;;26.48;14.90;;;;;;;;;;5047439;28;20421;-65
2023/05/04 00:44:40;;;;;;;25.55;12.45;;;;;;;;;;5017956;28;20061;-65
2023/05/04 00:47:12;;;;;;;22.50;9.77;;;;;;;;;;5000561;28;20049;-65
2023/05/04 00:49:42;;;;;;;22.92;9.82;;;;;;;;;;5050082;28;20095;-65
2023/05/04 00:52:15;;;;;;;14.90;7.32;;;;;;;;;;5033594;28;20056;-65
2023/05/04 00:54:46;;;;;;;17.55;8.82;;;;;;;;;;5050027;28;20189;-65
2023/05/04 00:57:17;;;;;;;18.80;8.77;;;;;;;;;;5049804;28;20064;-65
2023/05/04 00:59:47;;;;;;;9.85;4.90;;;;;;;;;;5029713;28;20052;-65
2023/05/04 01:02:17;;;;;;;8.27;4.00;;;;;;;;;;5032373;28;20057;-65
2023/05/04 01:04:47;;;;;;;10.68;6.00;;;;;;;;;;5009908;28;20054;-65
2023/05/04 01:08:18;;;;;;;7.00;3.40;;;;;;;;;;4990127;28;20050;-65
2023/05/04 01:11:06;;;;;;;1.70;1.20;;;;;;;;;;4913363;29;20060;-65
2023/05/04 01:13:37;;;;;;;2.70;0.90;;;;;;;;;;4913546;29;20072;-65
2023/05/04 01:16:07;;;;;;;1.63;0.73;;;;;;;;;;4913678;29;20068;-65
2023/05/04 01:18:37;;;;;;;1.25;0.60;;;;;;;;;;4894171;29;20211;-65
2023/05/04 01:21:08;;;;;;;5.10;0.90;;;;;;;;;;4894392;29;20075;-64
2023/05/04 01:23:38;;;;;;;0.98;0.70;;;;;;;;;;4912981;29;20156;-65
2023/05/04 01:26:28;;;;;;;1.00;0.80;;;;;;;;;;4913050;29;20575;-64
2023/05/04 01:29:16;;;;;;;0.80;0.52;;;;;;;;;;4912983;29;20056;-64
2023/05/04 01:31:47;;;;;;;3.08;0.70;;;;;;;;;;4913214;29;20056;-65
2023/05/04 01:34:19;;;;;;;1.27;0.70;;;;;;;;;;4897522;29;20104;-63
2023/05/04 01:36:49;;;;;;;2.00;0.60;;;;;;;;;;4885149;29;20076;-65
2023/05/04 01:39:20;;;;;;;1.40;0.30;;;;;;;;;;4931922;29;20067;-65
2023/05/04 01:41:50;;;;;;;3.22;0.40;;;;;;;;;;4932091;29;20079;-65
2023/05/04 01:44:20;;;;;;;3.88;0.63;;;;;;;;;;4931706;29;20059;-65
2023/05/04 01:46:51;;;;;;;1.73;0.40;;;;;;;;;;4958766;28;20077;-65
2023/05/04 01:49:22;;;;;;;2.85;0.50;;;;;;;;;;4973289;28;20054;-64
2023/05/04 01:51:52;;;;;;;1.10;0.82;;;;;;;;;;4973920;28;20066;-65
2023/05/04 01:54:24;;;;;;;;;;;;;;;;;;4973509;28;20157;-65
2023/05/04 01:56:54;;;;;;;0.82;0.40;;;;;;;;;;5019182;28;20057;-65
2023/05/04 01:59:24;;;;;;;0.65;0.30;;;;;;;;;;4989414;28;20062;-65
2023/05/04 02:01:55;;;;;;;1.88;1.73;;;;;;;;;;4938344;28;20085;-65
2023/05/04 02:04:27;;;;;;;1.17;0.50;;;;;;;;;;4969945;28;20059;-65
2023/05/04 02:06:57;;;;;;;1.27;0.30;;;;;;;;;;4977865;28;20088;-65
2023/05/04 02:09:27;;;;;;;1.30;0.43;;;;;;;;;;4960375;28;20069;-65
2023/05/04 02:11:57;;;;;;;1.60;0.50;;;;;;;;;;4953673;28;20043;-65
2023/05/04 02:14:27;;;;;;;2.55;0.60;;;;;;;;;;4931380;29;20546;-65
2023/05/04 02:16:58;;;;;;;2.97;0.70;;;;;;;;;;4962630;28;20052;-64
2023/05/04 02:19:28;;;;;;;2.60;0.75;;;;;;;;;;4950298;29;20047;-65
2023/05/04 02:21:58;;;;;;;4.13;0.60;;;;;;;;;;4950512;29;20188;-65
2023/05/04 02:24:29;;;;;;;1.25;0.55;;;;;;;;;;4950494;29;20055;-65
2023/05/04 02:27:01;;;;;;;1.33;0.70;;;;;;;;;;4969616;28;20066;-64
2023/05/04 02:29:31;;;;;;;3.65;1.02;;;;;;;;;;4969138;28;20058;-64
2023/05/04 02:32:02;;;;;;;3.47;1.27;;;;;;;;;;4969721;28;20058;-65
2023/05/04 02:34:34;;;;;;;5.80;0.50;;;;;;;;;;4968930;28;20051;-65
2023/05/04 02:37:04;;;;;;;1.73;0.80;;;;;;;;;;4956937;28;20061;-65
2023/05/04 02:39:35;;;;;;;1.48;0.43;;;;;;;;;;4976793;28;20058;-65
2023/05/04 02:42:06;;;;;;;7.32;0.68;;;;;;;;;;5008577;28;20045;-65
2023/05/04 02:44:36;;;;;;;2.97;0.50;;;;;;;;;;5008530;28;20072;-66
2023/05/04 02:47:06;;;;;;;2.20;0.60;;;;;;;;;;5008680;28;20054;-66
2023/05/04 02:49:36;;;;;;;1.63;0.60;;;;;;;;;;4975872;28;20057;-65
2023/05/04 02:52:06;;;;;;;3.47;0.70;;;;;;;;;;5008513;28;20054;-65
2023/05/04 02:54:37;;;;;;;3.22;0.60;;;;;;;;;;5008344;28;20058;-65
2023/05/04 02:57:07;;;;;;;3.05;0.70;;;;;;;;;;5018405;28;20057;-66
2023/05/04 02:59:37;;;;;;;1.63;0.45;;;;;;;;;;4972790;28;20054;-65
2023/05/04 03:02:07;;;;;;;1.80;0.60;;;;;;;;;;4926779;29;20060;-65
2023/05/04 03:04:37;;;;;;;1.50;0.47;;;;;;;;;;4883670;29;20064;-65
2023/05/04 03:07:08;;;;;;;1.50;0.50;;;;;;;;;;4892453;29;20064;-65
2023/05/04 03:09:39;;;;;;;1.40;0.60;;;;;;;;;;4911722;29;20052;-65
2023/05/04 03:12:09;;;;;;;3.08;0.73;;;;;;;;;;4880553;29;20048;-65
2023/05/04 03:14:39;;;;;;;0.68;0.40;;;;;;;;;;4880612;29;20052;-65
2023/05/04 03:17:09;;;;;;;0.98;0.40;;;;;;;;;;4880538;29;20052;-64
2023/05/04 03:19:39;;;;;;;0.65;0.30;;;;;;;;;;4892623;29;20533;-65
2023/05/04 03:22:11;;;;;;;0.50;0.20;;;;;;;;;;4892952;29;20536;-65
2023/05/04 03:24:43;;;;;;;;;;;;;;;;;;4911982;29;20060;-65
2023/05/04 03:27:13;;;;;;;0.30;0.20;;;;;;;;;;4908000;29;19967;-65
2023/05/04 03:29:44;;;;;;;1.15;0.30;;;;;;;;;;4895860;29;20059;-65
2023/05/04 03:32:15;;;;;;;2.33;0.30;;;;;;;;;;4935236;28;20055;-65
2023/05/04 03:34:45;;;;;;;0.60;0.30;;;;;;;;;;4942901;28;20053;-65
2023/05/04 03:37:16;;;;;;;0.30;0.25;;;;;;;;;;4984106;28;20051;-65
2023/05/04 03:39:48;;;;;;;1.17;0.70;;;;;;;;;;4953089;28;20081;-65
2023/05/04 03:42:18;;;;;;;2.45;0.35;;;;;;;;;;4952517;28;20050;-64
2023/05/04 03:44:48;;;;;;;0.68;0.30;;;;;;;;;;4949239;28;20048;-65
2023/05/04 03:47:18;;;;;;;0.20;0.13;;;;;;;;;;4890318;28;20062;-65
2023/05/04 03:49:48;;;;;;;0.35;0.20;;;;;;;;;;4902052;29;20051;-65
2023/05/04 03:52:18;;;;;;;0.30;0.20;;;;;;;;;;4952577;28;20051;-65
2023/05/04 03:54:48;;;;;;;1.65;0.30;;;;;;;;;;4952519;28;20062;-64
2023/05/04 03:57:18;;;;;;;0.40;0.30;;;;;;;;;;4962654;28;20070;-65
2023/05/04 03:59:49;;;;;;;1.35;0.20;;;;;;;;;;4971856;28;20047;-65
2023/05/04 04:02:20;;;;;;;0.50;0.15;;;;;;;;;;4940770;28;20069;-65
2023/05/04 04:04:50;;;;;;;1.60;1.50;;;;;;;;;;4972031;28;20050;-64
2023/05/04 04:07:21;;;;;;;1.73;0.30;;;;;;;;;;4934304;28;20055;-64
2023/05/04 04:09:52;;;;;;;0.30;0.30;;;;;;;;;;4959966;28;20759;-65
2023/05/04 04:12:22;;;;;;;0.80;0.57;;;;;;;;;;4917098;29;20047;-65
2023/05/04 04:14:52;;;;;;;1.30;0.30;;;;;;;;;;4896543;29;20056;-65
2023/05/04 04:17:22;;;;;;;0.22;0.10;;;;;;;;;;4917390;29;20059;-64
2023/05/04 04:19:52;;;;;;;0.47;0.30;;;;;;;;;;4941862;28;20059;-64
2023/05/04 04:22:22;;;;;;;2.00;0.35;;;;;;;;;;4936335;28;20071;-64
2023/05/04 04:24:53;;;;;;;0.85;0.30;;;;;;;;;;4936741;28;20722;-64
2023/05/04 04:27:23;;;;;;;0.73;0.32;;;;;;;;;;4945012;28;20050;-65
2023/05/04 04:29:53;;;;;;;1.10;0.30;;;;;;;;;;4971798;28;20430;-64
2023/05/04 04:32:23;;;;;;;1.60;0.40;;;;;;;;;;4955632;28;20562;-65
2023/05/04 04:34:53;;;;;;;1.40;0.20;;;;;;;;;;4971346;28;20050;-65
2023/05/04 04:37:23;;;;;;;1.67;0.45;;;;;;;;;;4964184;28;20050;-65
2023/05/04 04:39:54;;;;;;;1.38;0.55;;;;;;;;;;4991391;28;20045;-65
2023/05/04 04:42:24;;;;;;;0.70;0.22;;;;;;;;;;4958648;28;20109;-65
2023/05/04 04:44:54;;;;;;;1.77;0.40;;;;;;;;;;4983393;28;20054;-64
2023/05/04 04:47:25;;;;;;;0.70;0.40;;;;;;;;;;5019770;28;20061;-65
2023/05/04 04:49:55;;;;;;;1.63;0.30;;;;;;;;;;5048310;28;20063;-65
2023/05/04 04:52:26;;;;;;;2.58;0.40;;;;;;;;;;5070205;28;20053;-65
2023/05/04 04:54:56;;;;;;;4.72;0.40;;;;;;;;;;5054153;28;20056;-65
2023/05/04 04:57:26;;;;;;;2.50;0.60;;;;;;;;;;5036350;28;20064;-65
2023/05/04 05:00:06;;;;;;;2.58;0.40;;;;;;;;;;5070301;28;20045;-65
2023/05/04 05:02:36;;;;;;;1.85;0.40;;;;;;;;;;5069930;28;20064;-65
2023/05/04 05:05:07;;;;;;;1.08;0.40;;;;;;;;;;5070483;28;20049;-65
2023/05/04 05:07:37;;;;;;;1.58;0.57;;;;;;;;;;5069792;28;20053;-64
2023/05/04 05:10:08;;;;;;;1.48;0.47;;;;;;;;;;5069868;28;20052;-64
2023/05/04 05:12:38;;;;;;;4.18;0.65;;;;;;;;;;5069507;28;20052;-64
2023/05/04 05:15:08;;;;;;;2.80;0.50;;;;;;;;;;5070130;28;20055;-64
2023/05/04 05:17:39;;;;;;;2.83;0.75;;;;;;;;;;5035882;28;20048;-64
2023/05/04 05:20:10;;;;;;;3.25;0.43;;;;;;;;;;5053045;28;20099;-64
2023/05/04 05:22:41;;;;;;;3.63;0.55;;;;;;;;;;5082093;28;20060;-64
2023/05/04 05:25:12;;;;;;;1.10;0.38;;;;;;;;;;5089946;28;20506;-64
2023/05/04 05:27:42;;;;;;;1.63;0.50;;;;;;;;;;5092060;28;20047;-64
2023/05/04 05:30:12;;;;;;;1.08;0.40;;;;;;;;;;5072410;28;20056;-64
2023/05/04 05:32:42;;;;;;;9.20;0.88;;;;;;;;;;5092169;28;20044;-65
2023/05/04 05:35:17;;;;;;;0.65;0.32;;;;;;;;;;5073135;28;20063;-64
2023/05/04 05:37:48;;;;;;;1.15;0.45;;;;;;;;;;5091799;28;20403;-64
2023/05/04 05:40:18;;;;;;;2.10;0.30;;;;;;;;;;5072970;28;20048;-64
2023/05/04 05:42:48;;;;;;;4.47;0.32;;;;;;;;;;5040889;28;20059;-64
2023/05/04 05:45:18;;;;;;;2.33;0.32;;;;;;;;;;5106616;28;20059;-64
2023/05/04 05:47:50;;;;;;;2.00;0.57;;;;;;;;;;5091944;28;20044;-64
2023/05/04 05:50:20;;;;;;;1.92;0.38;;;;;;;;;;5057300;28;20060;-65
2023/05/04 05:52:50;;;;;;;2.00;0.40;;;;;;;;;;5090820;28;20043;-64
2023/05/04 05:55:20;;;;;;;2.85;0.40;;;;;;;;;;5091687;28;20040;-64
2023/05/04 05:57:51;;;;;;;0.93;0.20;;;;;;;;;;5091808;28;20048;-64
2023/05/04 06:00:21;;;;;;;1.23;0.35;;;;;;;;;;5091802;28;20048;-64
2023/05/04 06:02:52;;;;;;;2.67;1.00;;;;;;;;;;5072459;28;20052;-64
2023/05/04 06:05:22;;;;;;;0.93;0.20;;;;;;;;;;5072461;28;20056;-64
2023/05/04 06:07:52;;;;;;;0.85;0.30;;;;;;;;;;5091049;28;20044;-64
2023/05/04 06:10:22;;;;;;;1.65;0.50;;;;;;;;;;5091146;28;20475;-64
2023/05/04 06:12:52;;;;;;;5.10;0.90;;;;;;;;;;5089255;28;20040;-64
2023/05/04 06:15:22;;;;;;;1.85;0.40;;;;;;;;;;5091480;28;20040;-65
2023/05/04 06:17:52;;;;;;;2.88;0.80;;;;;;;;;;5091571;28;20048;-64
2023/05/04 06:20:22;;;;;;;2.28;0.80;;;;;;;;;;5091490;28;20040;-64
2023/05/04 06:22:52;;;;;;;4.63;0.75;;;;;;;;;;5089078;28;20047;-64
2023/05/04 06:25:22;;;;;;;2.47;0.43;;;;;;;;;;5091114;28;20044;-64
2023/05/04 06:27:53;;;;;;;5.65;0.50;;;;;;;;;;5057038;28;20062;-64
2023/05/04 06:30:23;;;;;;;3.67;0.57;;;;;;;;;;5088920;28;20060;-64
2023/05/04 06:32:54;;;;;;;1.23;0.50;;;;;;;;;;5091117;28;20487;-64
2023/05/04 06:35:25;;;;;;;1.05;0.30;;;;;;;;;;5100484;28;20384;-64
2023/05/04 06:37:55;;;;;;;2.47;0.40;;;;;;;;;;5111341;28;20047;-64
2023/05/04 06:40:26;;;;;;;0.95;0.30;;;;;;;;;;5111535;28;20051;-64
2023/05/04 06:42:56;;;;;;;1.15;0.47;;;;;;;;;;5074955;28;20044;-64
2023/05/04 06:45:28;;;;;;;1.15;0.50;;;;;;;;;;5111419;28;20059;-64
2023/05/04 06:47:59;;;;;;;6.72;1.00;;;;;;;;;;5018672;28;20040;-64
2023/05/04 06:50:32;;;;;;;3.40;1.13;;;;;;;;;;5051849;28;20068;-64
2023/05/04 06:53:10;;;;;;;4.55;0.80;;;;;;;;;;5068039;28;20427;-64
2023/05/04 06:55:40;;;;;;;2.70;0.52;;;;;;;;;;5068119;28;20048;-64
2023/05/04 06:58:11;;;;;;;4.82;0.80;;;;;;;;;;5051237;28;20059;-64
2023/05/04 07:00:41;;;;;;;3.10;0.85;;;;;;;;;;5051388;28;20044;-64
2023/05/04 07:03:11;;;;;;;2.85;1.30;;;;;;;;;;5068148;28;20044;-64
2023/05/04 07:05:43;;;;;;;4.55;0.60;;;;;;;;;;5068312;28;20059;-64
2023/05/04 07:08:15;;;;;;;2.42;0.45;;;;;;;;;;5068151;28;20060;-64
2023/05/04 07:10:45;;;;;;;3.15;0.40;;;;;;;;;;5051202;28;20167;-64
2023/05/04 07:13:16;;;;;;;1.50;0.22;;;;;;;;;;5068004;28;20052;-65
2023/05/04 07:15:46;;;;;;;3.67;0.52;;;;;;;;;;5067976;28;20429;-64
2023/05/04 07:18:16;;;;;;;4.18;0.40;;;;;;;;;;5068176;28;20067;-64
2023/05/04 07:20:47;;;;;;;3.13;0.30;;;;;;;;;;5071050;28;20044;-64
2023/05/04 07:23:17;;;;;;;3.40;0.40;;;;;;;;;;5072022;28;20052;-65
2023/05/04 07:25:47;;;;;;;4.57;0.95;;;;;;;;;;5061938;28;20408;-64
2023/05/04 07:28:19;;;;;;;5.47;0.60;;;;;;;;;;5037956;28;20060;-64
2023/05/04 07:30:50;;;;;;;2.25;0.50;;;;;;;;;;5021807;28;20052;-64
2023/05/04 07:33:20;;;;;;;1.90;0.70;;;;;;;;;;5038300;28;20052;-64
2023/05/04 07:35:55;;;;;;;1.10;0.50;;;;;;;;;;5071399;28;20052;-64
2023/05/04 07:38:26;;;;;;;2.33;0.90;;;;;;;;;;5055227;28;20397;-64
2023/05/04 07:40:56;;;;;;;2.78;0.57;;;;;;;;;;5071395;28;20081;-64
2023/05/04 07:43:26;;;;;;;4.97;0.65;;;;;;;;;;5072114;28;20053;-64
2023/05/04 07:45:56;;;;;;;2.70;0.50;;;;;;;;;;5054243;28;20527;-64
2023/05/04 07:48:26;;;;;;;9.80;0.70;;;;;;;;;;5037798;28;20389;-64
2023/05/04 07:50:57;;;;;;;3.25;0.60;;;;;;;;;;5054507;28;20045;-64
2023/05/04 07:53:27;;;;;;;2.50;0.65;;;;;;;;;;5071464;28;20052;-64
2023/05/04 07:55:59;;;;;;;2.40;0.68;;;;;;;;;;5071164;28;20045;-64
2023/05/04 07:58:30;;;;;;;2.08;0.70;;;;;;;;;;5047256;28;20056;-64
2023/05/04 08:01:00;;;;;;;2.20;0.73;;;;;;;;;;5031536;28;20069;-64
2023/05/04 08:03:31;;;;;;;2.00;0.70;;;;;;;;;;5031130;28;20553;-64
2023/05/04 08:06:01;;;;;;;11.00;1.10;;;;;;;;;;5028112;28;20057;-64
2023/05/04 08:08:31;;;;;;;7.38;1.00;;;;;;;;;;5037828;28;20531;-64
2023/05/04 08:11:01;;;;;;;3.67;0.98;;;;;;;;;;5070817;28;20412;-64
2023/05/04 08:13:49;;;;;;;3.03;0.80;;;;;;;;;;5071023;28;20040;-64
2023/05/04 08:16:18;;;;;;;3.75;0.60;;;;;;;;;;5070717;28;20512;-64
2023/05/04 08:18:51;;;;;;;3.45;0.70;;;;;;;;;;5037650;28;20045;-64
2023/05/04 08:21:21;;;;;;;5.88;1.00;;;;;;;;;;5070927;28;20048;-64
2023/05/04 08:23:51;;;;;;;4.45;0.70;;;;;;;;;;5054638;28;20056;-64
2023/05/04 08:26:22;;;;;;;4.55;0.50;;;;;;;;;;5070590;28;20115;-64
2023/05/04 08:29:04;;;;;;;;;;;;;;;;;;5023446;28;20055;-65
2023/05/04 08:31:35;;;;;;;2.05;0.50;;;;;;;;;;5069759;28;19920;-64
2023/05/04 08:34:06;;;;;;;7.03;0.80;;;;;;;;;;5021064;28;20049;-64
2023/05/04 08:36:37;;;;;;;2.78;0.90;;;;;;;;;;5065003;28;20051;-64
2023/05/04 08:39:07;;;;;;;2.95;0.93;;;;;;;;;;5113563;28;20541;-64
2023/05/04 08:41:39;;;;;;;3.08;1.23;;;;;;;;;;5078107;28;20052;-64
2023/05/04 08:44:11;;;;;;;2.10;1.00;;;;;;;;;;5113417;28;20044;-64
2023/05/04 08:46:41;;;;;;;3.22;1.00;;;;;;;;;;5094031;28;20051;-64
2023/05/04 08:49:11;;;;;;;2.33;0.98;;;;;;;;;;5077251;28;20050;-64
2023/05/04 08:51:42;;;;;;;2.30;0.98;;;;;;;;;;5045480;28;20419;-64
2023/05/04 08:54:12;;;;;;;2.28;0.80;;;;;;;;;;5077322;28;20526;-65
2023/05/04 08:56:45;;;;;;;1.90;0.82;;;;;;;;;;5113308;28;20858;-64
2023/05/04 08:59:21;;;;;;;3.63;0.80;;;;;;;;;;5113216;28;20046;-64
2023/05/04 09:01:57;;;;;;;2.20;0.82;;;;;;;;;;5060508;28;20051;-64
2023/05/04 09:04:27;;;;;;;2.97;0.88;;;;;;;;;;5113415;28;20043;-64
2023/05/04 09:06:58;;;;;;;1.77;0.93;;;;;;;;;;5095280;28;20417;-64
2023/05/04 09:09:30;;;;;;;1.60;1.10;;;;;;;;;;5113231;28;20036;-64
2023/05/04 09:12:00;;;;;;;4.40;1.15;;;;;;;;;;5060232;28;20055;-64
2023/05/04 09:14:34;;;;;;;2.10;0.90;;;;;;;;;;5076879;28;20066;-64
2023/05/04 09:17:13;;;;;;;2.60;0.98;;;;;;;;;;5112586;28;20475;-64
2023/05/04 09:19:43;;;;;;;;;;;;;;;;;;5077413;28;20067;-64
2023/05/04 09:22:17;;;;;;;2.15;1.17;;;;;;;;;;5060201;28;19919;-64
2023/05/04 09:24:47;;;;;;;3.00;0.90;;;;;;;;;;5112732;28;20058;-64
2023/05/04 09:27:17;;;;;;;2.72;1.00;;;;;;;;;;5112847;28;20047;-64
2023/05/04 09:29:54;;;;;;;3.08;1.15;;;;;;;;;;5112680;28;20051;-64
2023/05/04 09:32:24;;;;;;;2.42;0.98;;;;;;;;;;5076798;28;20059;-64
2023/05/04 09:34:54;;;;;;;1.73;1.02;;;;;;;;;;5112421;28;20063;-64
2023/05/04 09:37:24;;;;;;;2.97;1.10;;;;;;;;;;5075941;28;20510;-65
2023/05/04 09:39:56;;;;;;;3.80;1.13;;;;;;;;;;5059726;28;20505;-65
2023/05/04 09:42:27;;;;;;;3.28;1.20;;;;;;;;;;5111756;28;20048;-65
2023/05/04 09:45:03;;;;;;;3.45;1.42;;;;;;;;;;5092851;28;20530;-65
2023/05/04 09:47:36;;;;;;;4.10;1.13;;;;;;;;;;5075949;28;20047;-65
2023/05/04 09:50:11;;;;;;;3.13;1.00;;;;;;;;;;5112381;28;20506;-65
2023/05/04 09:52:43;;;;;;;2.63;1.20;;;;;;;;;;5111762;28;20483;-65
2023/05/04 09:55:16;;;;;;;3.17;1.27;;;;;;;;;;5076042;28;20051;-65
2023/05/04 09:57:49;;;;;;;2.90;1.30;;;;;;;;;;5059531;28;20058;-64
2023/05/04 10:00:21;;;;;;;1.88;0.88;;;;;;;;;;5075595;28;20044;-63
2023/05/04 10:02:51;;;;;;;3.25;0.82;;;;;;;;;;5112025;28;20048;-64
2023/05/04 10:05:22;;;;;;;2.85;1.20;;;;;;;;;;5076544;28;20507;-64
2023/05/04 10:07:52;;;;;;;2.03;0.80;;;;;;;;;;5058981;28;20051;-64
2023/05/04 10:10:22;;;;;;;1.92;0.88;;;;;;;;;;5041864;28;20050;-64
2023/05/04 10:12:52;;;;;;;5.55;0.75;;;;;;;;;;5092543;28;20059;-64
2023/05/04 10:15:23;;;;;;;1.42;0.90;;;;;;;;;;5111560;28;20044;-63
2023/05/04 10:18:07;;;;;;;0.88;0.47;;;;;;;;;;5058361;28;20050;-65
2023/05/04 10:21:32;;;;;;;1.10;0.50;;;;;;;;;;5058966;28;20055;-64
2023/05/04 10:24:52;;;;;;;1.00;0.47;;;;;;;;;;4988935;28;20159;-64
2023/05/04 10:27:48;;;;;;;0.98;0.80;;;;;;;;;;4918069;29;20393;-63
2023/05/04 10:30:19;;;;;;;1.90;0.82;;;;;;;;;;4950282;28;20092;-64
2023/05/04 10:33:00;;;;;;;1.85;0.80;;;;;;;;;;4918215;28;20589;-65
2023/05/04 10:35:31;;;;;;;0.98;0.77;;;;;;;;;;4950187;28;20526;-64
2023/05/04 10:38:03;;;;;;;2.67;1.00;;;;;;;;;;4950423;28;20058;-64
2023/05/04 10:40:38;;;;;;;2.47;0.82;;;;;;;;;;4918608;28;20062;-64
2023/05/04 10:43:11;;;;;;;2.25;1.20;;;;;;;;;;4918469;28;20393;-64
2023/05/04 10:45:42;;;;;;;2.15;1.08;;;;;;;;;;4950418;28;20171;-64
2023/05/04 10:48:12;;;;;;;4.47;1.73;;;;;;;;;;4930501;29;20075;-64
2023/05/04 10:50:49;;;;;;;2.08;0.90;;;;;;;;;;4930955;29;20067;-64
2023/05/04 10:53:31;;;;;;;4.13;1.40;;;;;;;;;;4930969;29;20056;-64
2023/05/04 10:56:02;;;;;;;7.10;2.85;;;;;;;;;;4930705;29;20091;-64
2023/05/04 10:58:32;;;;;;;20.80;7.97;;;;;;;;;;4957836;28;20047;-64
2023/05/04 11:01:12;;;;;;;8.25;3.53;;;;;;;;;;5011622;28;20068;-64
2023/05/04 11:03:42;;;;;;;15.07;6.97;;;;;;;;;;5018177;28;20527;-64
2023/05/04 11:06:30;;;;;;;5.30;2.10;;;;;;;;;;5034303;28;20049;-64
2023/05/04 11:09:05;;;;;;;1.73;0.77;;;;;;;;;;5067981;28;20511;-63
2023/05/04 11:11:36;;;;;;;3.30;0.90;;;;;;;;;;5051117;28;20063;-64
2023/05/04 11:14:06;;;;;;;4.32;1.70;;;;;;;;;;5035416;28;20052;-65
2023/05/04 11:16:36;;;;;;;1.90;1.00;;;;;;;;;;5080299;28;20549;-64
2023/05/04 11:19:08;;;;;;;1.95;1.00;;;;;;;;;;5071089;28;20048;-64
2023/05/04 11:21:40;;;;;;;3.33;1.10;;;;;;;;;;5088089;28;20044;-64
2023/05/04 11:24:10;;;;;;;2.42;0.80;;;;;;;;;;5010214;28;20513;-64
2023/05/04 11:26:49;;;;;;;4.43;0.80;;;;;;;;;;5060875;28;20045;-64
2023/05/04 11:29:19;;;;;;;1.83;1.02;;;;;;;;;;5011165;28;20060;-63
2023/05/04 11:31:56;;;;;;;4.13;1.08;;;;;;;;;;5067124;28;20044;-63
2023/05/04 11:34:26;;;;;;;1.60;0.70;;;;;;;;;;5024369;28;20056;-64
2023/05/04 11:36:57;;;;;;;2.00;0.80;;;;;;;;;;5031473;28;20057;-64
2023/05/04 11:39:32;;;;;;;2.40;0.80;;;;;;;;;;5017979;28;20049;-63
2023/05/04 11:42:08;;;;;;;4.30;1.20;;;;;;;;;;5047479;28;20049;-64
2023/05/04 11:44:39;;;;;;;2.85;0.90;;;;;;;;;;5030572;28;20060;-64
2023/05/04 11:47:09;;;;;;;3.05;1.42;;;;;;;;;;5047647;28;20049;-64
2023/05/04 11:49:40;;;;;;;2.00;0.93;;;;;;;;;;5030704;28;20056;-64
2023/05/04 11:52:11;;;;;;;3.17;1.13;;;;;;;;;;5031328;28;20052;-64
2023/05/04 11:54:41;;;;;;;3.55;1.33;;;;;;;;;;5047379;28;20045;-64
2023/05/04 11:57:21;;;;;;;3.38;1.30;;;;;;;;;;5031068;28;20068;-64
2023/05/04 11:59:52;;;;;;;3.95;1.67;;;;;;;;;;5047516;28;20077;-64
2023/05/04 12:02:22;;;;;;;5.97;2.20;;;;;;;;;;5053812;28;20063;-64
2023/05/04 12:04:52;;;;;;;8.50;2.72;;;;;;;;;;5054239;28;20055;-65
2023/05/04 12:07:23;;;;;;;9.73;2.55;;;;;;;;;;5089620;28;20052;-66
2023/05/04 12:09:53;;;;;;;8.88;3.35;;;;;;;;;;5057297;28;20606;-65
2023/05/04 12:12:35;;;;;;;6.82;3.83;;;;;;;;;;5091115;28;20052;-65
2023/05/04 12:15:05;;;;;;;16.40;5.20;;;;;;;;;;5090890;28;20195;-65
2023/05/04 12:17:40;;;;;;;17.05;5.22;;;;;;;;;;5091048;28;20040;-65
2023/05/04 12:20:21;;;;;;;16.17;7.60;;;;;;;;;;5058509;28;20389;-64
2023/05/04 12:22:52;;;;;;;10.32;4.13;;;;;;;;;;5057852;28;20055;-64
2023/05/04 12:25:23;;;;;;;10.13;3.53;;;;;;;;;;5090797;28;20063;-64
2023/05/04 12:27:53;;;;;;;4.47;2.33;;;;;;;;;;5057209;28;20051;-64
2023/05/04 12:30:23;;;;;;;9.10;3.10;;;;;;;;;;5090921;28;20052;-64
2023/05/04 12:32:53;;;;;;;8.75;2.80;;;;;;;;;;5090663;28;20056;-64
2023/05/04 12:35:23;;;;;;;8.18;2.65;;;;;;;;;;5052714;28;20546;-66
2023/05/04 12:37:54;;;;;;;7.65;2.50;;;;;;;;;;5110970;28;20179;-64
2023/05/04 12:40:25;;;;;;;5.07;2.45;;;;;;;;;;5070241;28;20048;-64
2023/05/04 12:42:57;;;;;;;5.28;2.13;;;;;;;;;;5113580;28;20044;-64
2023/05/04 12:45:27;;;;;;;6.95;2.30;;;;;;;;;;5113531;28;20039;-64
2023/05/04 12:47:57;;;;;;;8.48;2.50;;;;;;;;;;5113546;28;20483;-65
2023/05/04 12:50:28;;;;;;;6.88;2.70;;;;;;;;;;5113156;28;20046;-64
2023/05/04 12:52:58;;;;;;;4.80;2.65;;;;;;;;;;5113294;28;20522;-65
2023/05/04 12:55:28;;;;;;;4.22;2.33;;;;;;;;;;5077248;28;20530;-63
2023/05/04 12:57:58;;;;;;;5.13;2.25;;;;;;;;;;5077248;28;20063;-65
2023/05/04 13:00:31;;;;;;;4.95;1.92;;;;;;;;;;5077889;28;20502;-65
2023/05/04 13:03:01;;;;;;;3.65;1.67;;;;;;;;;;5092208;27;20522;-65
2023/05/04 13:05:32;;;;;;;3.20;1.50;;;;;;;;;;5133441;27;20051;-66
2023/05/04 13:08:02;;;;;;;4.32;2.25;;;;;;;;;;5114125;27;20047;-63
2023/05/04 13:10:31;;;;;;;3.88;1.77;;;;;;;;;;5133532;27;20043;-65
2023/05/04 13:13:03;;;;;;;6.70;2.58;;;;;;;;;;5090008;28;20055;-65
2023/05/04 13:15:33;;;;;;;4.78;2.17;;;;;;;;;;5073453;28;20059;-66
2023/05/04 13:18:04;;;;;;;5.38;2.13;;;;;;;;;;5089596;28;20527;-65
2023/05/04 13:20:34;;;;;;;6.18;2.58;;;;;;;;;;5056143;28;20064;-65
2023/05/04 13:23:04;;;;;;;6.57;2.97;;;;;;;;;;5089590;28;20044;-66
2023/05/04 13:25:36;;;;;;;7.78;2.33;;;;;;;;;;5009262;28;20471;-65
2023/05/04 13:28:06;;;;;;;5.50;2.95;;;;;;;;;;5039261;28;20056;-65
2023/05/04 13:30:36;;;;;;;6.32;2.70;;;;;;;;;;5017410;28;20056;-64
2023/05/04 13:33:06;;;;;;;6.78;2.08;;;;;;;;;;5049065;28;20552;-65
2023/05/04 13:35:56;;;;;;;2.88;0.90;;;;;;;;;;4983272;28;20048;-64
2023/05/04 13:38:27;;;;;;;0.60;0.40;;;;;;;;;;4999419;28;20052;-65
2023/05/04 13:40:57;;;;;;;1.83;0.70;;;;;;;;;;5032927;28;20060;-65
2023/05/04 13:43:27;;;;;;;2.15;0.90;;;;;;;;;;5048754;28;20064;-64
2023/05/04 13:46:02;;;;;;;1.88;0.60;;;;;;;;;;5049209;28;20061;-64
2023/05/04 13:48:32;;;;;;;0.80;0.50;;;;;;;;;;5049044;28;20053;-64
2023/05/04 13:51:03;;;;;;;3.45;1.20;;;;;;;;;;5049411;28;20076;-62
2023/05/04 13:53:33;;;;;;;5.70;1.30;;;;;;;;;;5048970;28;20663;-64
2023/05/04 13:56:05;;;;;;;7.75;1.20;;;;;;;;;;5048741;28;20059;-65
2023/05/04 13:58:35;;;;;;;2.72;0.80;;;;;;;;;;5049183;28;20053;-65
2023/05/04 14:01:05;;;;;;;3.00;1.40;;;;;;;;;;5031972;28;20049;-65
2023/05/04 14:03:37;;;;;;;3.17;1.20;;;;;;;;;;5009001;28;20046;-65
2023/05/04 14:06:07;;;;;;;5.38;2.50;;;;;;;;;;4960613;28;20058;-65
2023/05/04 14:08:37;;;;;;;2.03;0.90;;;;;;;;;;5022349;28;20060;-65
2023/05/04 14:11:07;;;;;;;0.90;0.40;;;;;;;;;;5028885;28;20073;-64
2023/05/04 14:13:37;;;;;;;0.82;0.50;;;;;;;;;;5029206;28;20373;-65
2023/05/04 14:16:08;;;;;;;0.85;0.50;;;;;;;;;;5028519;28;20540;-64
2023/05/04 14:18:38;;;;;;;1.23;0.70;;;;;;;;;;4996517;28;20732;-65
2023/05/04 14:21:08;;;;;;;1.85;0.95;;;;;;;;;;5038795;28;20512;-64
2023/05/04 14:23:39;;;;;;;1.55;0.80;;;;;;;;;;5048443;28;20044;-65
2023/05/04 14:26:10;;;;;;;2.47;0.57;;;;;;;;;;5015464;28;20553;-62
2023/05/04 14:28:40;;;;;;;3.55;1.20;;;;;;;;;;5014965;28;20056;-64
2023/05/04 14:31:10;;;;;;;2.58;1.20;;;;;;;;;;5047710;28;20056;-63
2023/05/04 14:33:41;;;;;;;2.38;0.90;;;;;;;;;;5048210;28;20476;-65
2023/05/04 14:36:12;;;;;;;2.10;0.68;;;;;;;;;;5048009;28;20524;-64
2023/05/04 14:38:42;;;;;;;4.28;0.63;;;;;;;;;;5047958;28;20084;-67
2023/05/04 14:41:14;;;;;;;1.52;0.77;;;;;;;;;;5077690;28;20059;-64
2023/05/04 14:43:44;;;;;;;1.20;0.60;;;;;;;;;;5108681;28;20147;-64
2023/05/04 14:46:14;;;;;;;1.77;0.63;;;;;;;;;;5074909;28;20066;-65
2023/05/04 14:48:44;;;;;;;2.25;0.90;;;;;;;;;;5092228;28;20058;-64
2023/05/04 14:51:21;;;;;;;2.00;0.77;;;;;;;;;;5075031;28;20064;-64
2023/05/04 14:53:53;;;;;;;5.43;0.80;;;;;;;;;;5097544;28;20151;-66
2023/05/04 14:56:23;;;;;;;1.92;1.00;;;;;;;;;;5067639;28;20055;-65
2023/05/04 14:58:56;;;;;;;2.17;1.00;;;;;;;;;;5035012;28;20056;-65
2023/05/04 15:01:26;;;;;;;2.10;0.93;;;;;;;;;;5047869;28;20132;-65
2023/05/04 15:03:56;;;;;;;1.77;0.90;;;;;;;;;;5067941;28;20086;-66
2023/05/04 15:06:31;;;;;;;2.40;1.38;;;;;;;;;;5067890;28;20412;-66
2023/05/04 15:09:02;;;;;;;3.22;0.73;;;;;;;;;;5023298;28;20476;-66
2023/05/04 15:11:32;;;;;;;1.65;0.80;;;;;;;;;;5031620;28;20064;-65